createdAt,value
2018-07-12T11:50:50.531Z,23.4
2018-07-12T11:52:50.475Z,23.4
2018-07-12T11:54:49.905Z,23.4
2018-07-12T11:56:50.296Z,23.5
2018-07-12T11:58:50.837Z,23.5
2018-07-12T12:00:50.103Z,23.4
2018-07-12T12:02:50.404Z,23.4
2018-07-12T12:04:50.100Z,23.4
2018-07-12T12:06:50.849Z,23.4
2018-07-12T12:08:50.286Z,23.4
2018-07-12T12:10:50.518Z,23.4
2018-07-12T12:12:50.951Z,23.4
2018-07-12T12:14:50.332Z,23.4
2018-07-12T12:16:50.606Z,23.4
2018-07-12T12:18:49.975Z,23.4
2018-07-12T12:20:50.340Z,23.4
2018-07-12T12:22:50.723Z,23.4
2018-07-12T12:24:50.158Z,23.4
2018-07-12T12:26:50.609Z,23.4
2018-07-12T12:28:50.886Z,23.5
2018-07-12T12:30:50.118Z,23.5
2018-07-12T12:32:50.406Z,23.6
2018-07-12T12:34:49.951Z,23.7
2018-07-12T12:36:50.562Z,23.7
2018-07-12T12:38:49.998Z,23.8
2018-07-12T12:40:50.448Z,23.8
2018-07-12T12:42:50.857Z,23.8
2018-07-12T12:44:50.089Z,24.0
2018-07-12T12:46:50.524Z,24.0
2018-07-12T12:48:50.858Z,24.1
2018-07-12T12:50:50.397Z,24.1
2018-07-12T12:52:49.870Z,24.2
2018-07-12T12:54:50.092Z,24.2
2018-07-12T12:56:50.612Z,24.3
2018-07-12T12:58:49.901Z,24.3
2018-07-12T13:00:50.301Z,24.4
2018-07-12T13:02:49.973Z,24.4
2018-07-12T13:04:50.790Z,24.4
2018-07-12T13:06:50.297Z,24.4
2018-07-12T13:08:50.627Z,24.4
2018-07-12T13:10:49.938Z,24.6
2018-07-12T13:12:50.246Z,24.6
2018-07-12T13:14:50.578Z,24.6
2018-07-12T13:16:49.984Z,24.6
2018-07-12T13:18:50.291Z,24.6
2018-07-12T13:20:50.639Z,24.6
2018-07-12T13:22:49.968Z,24.8
2018-07-12T13:24:50.277Z,24.8
2018-07-12T13:26:50.702Z,25.0
2018-07-12T13:28:49.964Z,25.0
2018-07-12T13:30:50.264Z,25.1
2018-07-12T13:32:50.476Z,25.2
2018-07-12T13:34:50.131Z,25.2
2018-07-12T13:36:50.657Z,25.2
2018-07-12T13:38:49.991Z,25.3
2018-07-12T13:40:50.682Z,25.2
2018-07-12T13:42:50.000Z,25.2
2018-07-12T13:44:50.394Z,25.0
2018-07-12T13:46:51.632Z,24.8
2018-07-12T13:48:50.135Z,24.8
2018-07-12T13:50:50.594Z,24.7
2018-07-12T13:52:49.971Z,24.8
2018-07-12T13:54:50.178Z,24.8
2018-07-12T13:56:50.820Z,24.8
2018-07-12T13:58:50.278Z,24.9
2018-07-12T14:00:50.692Z,25.0
2018-07-12T14:02:50.046Z,25.1
2018-07-12T14:04:50.632Z,25.1
2018-07-12T14:06:50.130Z,25.1
2018-07-12T14:08:50.300Z,25.2
2018-07-12T14:10:50.670Z,25.2
2018-07-12T14:12:50.183Z,25.4
2018-07-12T14:14:50.515Z,25.5
2018-07-12T14:16:49.993Z,25.5
2018-07-12T14:18:50.307Z,25.6
2018-07-12T14:20:50.746Z,25.7
2018-07-12T14:22:50.116Z,25.7
2018-07-12T14:24:50.468Z,25.8
2018-07-12T14:26:50.878Z,25.8
2018-07-12T14:28:50.318Z,25.8
2018-07-12T14:30:50.887Z,25.8
2018-07-12T14:32:50.262Z,25.8
2018-07-12T14:34:49.894Z,25.7
2018-07-12T14:36:50.304Z,25.7
2018-07-12T14:38:50.629Z,25.7
2018-07-12T14:40:49.879Z,25.7
2018-07-12T14:42:50.292Z,25.7
2018-07-12T14:44:50.604Z,25.8
2018-07-12T14:46:50.036Z,25.8
2018-07-12T14:48:50.382Z,25.9
2018-07-12T14:50:50.586Z,25.8
2018-07-12T14:52:49.892Z,25.8
2018-07-12T14:54:50.124Z,25.7
2018-07-12T14:56:50.552Z,25.38
2018-07-12T14:58:49.935Z,25.27
2018-07-12T15:00:50.193Z,25.36
2018-07-12T15:02:50.837Z,25.5
2018-07-12T15:04:50.497Z,25.5
2018-07-12T15:06:50.052Z,25.5
2018-07-12T15:08:50.663Z,25.5
2018-07-12T15:10:49.989Z,25.4
2018-07-12T15:12:50.406Z,25.25
2018-07-12T15:14:50.806Z,24.84
2018-07-12T15:16:50.846Z,24.74
2018-07-12T15:18:50.279Z,24.60
2018-07-12T15:20:50.584Z,24.55
2018-07-12T15:22:49.942Z,24.54
2018-07-12T15:24:50.294Z,24.70
2018-07-12T15:26:50.782Z,24.92
2018-07-12T15:28:50.028Z,25.07
2018-07-12T15:30:50.198Z,25.10
2018-07-12T15:32:50.477Z,25.10
2018-07-12T15:34:50.154Z,24.88
2018-07-12T15:36:50.676Z,24.87
2018-07-12T15:38:49.985Z,24.97
2018-07-12T15:40:50.313Z,25.0
2018-07-12T15:42:50.540Z,24.9
2018-07-12T15:44:50.834Z,24.9
2018-07-12T15:46:50.316Z,24.9
2018-07-12T15:48:50.586Z,24.9
2018-07-12T15:50:50.866Z,25.0
2018-07-12T15:52:50.573Z,25.1
2018-07-12T15:54:49.955Z,25.2
2018-07-12T15:56:50.282Z,25.2
2018-07-12T15:58:50.631Z,25.2
2018-07-12T16:00:49.886Z,25.3
2018-07-12T16:02:50.140Z,25.4
2018-07-12T16:04:50.642Z,25.4
2018-07-12T16:06:50.223Z,25.5
2018-07-12T16:08:50.471Z,25.5
2018-07-12T16:10:50.794Z,25.6
2018-07-12T16:12:50.117Z,25.6
2018-07-12T16:14:50.294Z,25.6
2018-07-12T16:16:49.908Z,25.6
2018-07-12T16:18:50.182Z,25.8
2018-07-12T16:20:50.845Z,25.8
2018-07-12T16:22:50.072Z,25.8
2018-07-12T16:24:50.390Z,25.9
2018-07-12T16:26:49.940Z,25.9
2018-07-12T16:28:50.127Z,26.0
2018-07-12T16:30:50.391Z,26.0
2018-07-12T16:32:50.656Z,26.1
2018-07-12T16:34:50.161Z,26.1
2018-07-12T16:36:50.732Z,26.1
2018-07-12T16:38:50.045Z,26.2
2018-07-12T16:40:50.334Z,26.3
2018-07-12T16:42:50.718Z,26.4
2018-07-12T16:44:50.045Z,26.4
2018-07-12T16:46:50.540Z,26.4
2018-07-12T16:48:49.900Z,26.5
2018-07-12T16:50:50.129Z,26.6
2018-07-12T16:52:50.597Z,26.6
2018-07-12T16:54:49.930Z,26.6
2018-07-12T16:56:50.273Z,26.6
2018-07-12T16:58:50.682Z,26.6
2018-07-12T17:00:50.030Z,26.7
2018-07-12T17:02:50.313Z,26.8
2018-07-12T17:04:50.235Z,26.8
2018-07-12T17:06:50.599Z,26.8
2018-07-12T17:08:49.948Z,26.9
2018-07-12T17:10:50.247Z,26.9
2018-07-12T17:12:50.837Z,26.9
2018-07-12T17:14:50.105Z,26.9
2018-07-12T17:16:50.638Z,26.9
2018-07-12T17:18:49.955Z,26.9
2018-07-12T17:20:50.224Z,26.55
2018-07-12T17:22:50.433Z,26.47
2018-07-12T17:24:50.778Z,26.29
2018-07-12T17:26:50.389Z,25.78
2018-07-12T17:28:50.697Z,25.63
2018-07-12T17:30:49.953Z,25.70
2018-07-12T17:32:50.103Z,25.74
2018-07-12T17:34:50.741Z,25.44
2018-07-12T17:36:50.247Z,25.27
2018-07-12T17:38:50.479Z,24.89
2018-07-12T17:40:50.652Z,24.64
2018-07-12T17:42:49.950Z,24.58
2018-07-12T17:44:50.223Z,24.40
2018-07-12T17:46:50.567Z,24.31
2018-07-12T17:48:50.835Z,24.31
2018-07-12T17:50:50.262Z,24.31
2018-07-12T17:52:50.442Z,24.19
2018-07-12T17:54:50.762Z,24.11
2018-07-12T17:56:50.245Z,24.06
2018-07-12T17:58:50.521Z,24.00
2018-07-12T18:00:50.839Z,24.01
2018-07-12T18:02:50.129Z,24.02
2018-07-12T18:04:50.890Z,23.95
2018-07-12T18:06:50.402Z,23.96
2018-07-12T18:08:50.718Z,23.97
2018-07-12T18:10:49.993Z,23.94
2018-07-12T18:12:50.288Z,23.83
2018-07-12T18:14:50.802Z,23.83
2018-07-12T18:16:50.338Z,23.76
2018-07-12T18:18:50.620Z,23.74
2018-07-12T18:20:50.865Z,23.71
2018-07-12T18:22:50.192Z,23.68
2018-07-12T18:24:50.466Z,23.56
2018-07-12T18:26:49.864Z,23.42
2018-07-12T18:28:50.096Z,23.37
2018-07-12T18:30:50.464Z,23.29
2018-07-12T18:32:50.672Z,23.24
2018-07-12T18:34:50.324Z,23.16
2018-07-12T18:36:50.828Z,23.11
2018-07-12T18:38:50.044Z,23.01
2018-07-12T18:40:50.275Z,22.94
2018-07-12T18:42:50.644Z,22.84
2018-07-12T18:44:49.965Z,22.80
2018-07-12T18:46:50.453Z,22.71
2018-07-12T18:48:50.718Z,22.67
2018-07-12T18:50:49.960Z,22.55
2018-07-12T18:52:50.245Z,22.51
2018-07-12T18:54:50.583Z,22.42
2018-07-12T18:56:49.977Z,22.37
2018-07-12T18:58:50.350Z,22.31
2018-07-12T19:00:50.603Z,22.25
2018-07-12T19:02:49.882Z,22.19
2018-07-12T19:04:50.502Z,22.12
2018-07-12T19:06:49.901Z,22.04
2018-07-12T19:08:50.643Z,21.93
2018-07-12T19:10:50.156Z,21.90
2018-07-12T19:12:50.454Z,21.81
2018-07-12T19:14:51.131Z,21.76
2018-07-12T19:16:50.633Z,21.66
2018-07-12T19:18:50.013Z,21.59
2018-07-12T19:20:50.595Z,21.55
2018-07-12T19:22:50.059Z,21.60
2018-07-12T19:24:50.252Z,21.62
2018-07-12T19:26:50.600Z,21.65
2018-07-12T19:28:49.971Z,21.64
2018-07-12T19:30:50.240Z,21.66
2018-07-12T19:32:50.539Z,21.69
2018-07-12T19:34:50.322Z,21.68
2018-07-12T19:36:49.921Z,21.69
2018-07-12T19:38:50.113Z,21.68
2018-07-12T19:40:50.484Z,21.67
2018-07-12T19:42:50.063Z,21.67
2018-07-12T19:44:50.340Z,21.66
2018-07-12T19:46:50.444Z,21.60
2018-07-12T19:48:50.731Z,21.60
2018-07-12T19:50:50.106Z,21.58
2018-07-12T19:52:50.567Z,21.59
2018-07-12T19:54:49.902Z,21.57
2018-07-12T19:56:50.352Z,21.56
2018-07-12T19:58:50.547Z,21.53
2018-07-12T20:00:50.948Z,21.50
2018-07-12T20:02:50.316Z,21.45
2018-07-12T20:04:49.913Z,21.44
2018-07-12T20:06:50.411Z,21.41
2018-07-12T20:08:50.752Z,21.38
2018-07-12T20:10:50.051Z,21.33
2018-07-12T20:12:50.464Z,21.31
2018-07-12T20:14:50.604Z,21.31
2018-07-12T20:16:50.184Z,21.30
2018-07-12T20:18:50.541Z,21.29
2018-07-12T20:20:50.802Z,21.26
2018-07-12T20:22:50.106Z,21.25
2018-07-12T20:24:50.857Z,21.25
2018-07-12T20:26:50.351Z,21.25
2018-07-12T20:28:50.649Z,21.25
2018-07-12T20:30:50.093Z,21.26
2018-07-12T20:32:50.360Z,21.27
2018-07-12T20:34:49.881Z,21.25
2018-07-12T20:36:50.267Z,21.24
2018-07-12T20:38:50.647Z,21.20
2018-07-12T20:40:50.484Z,21.16
2018-07-12T20:42:49.971Z,21.09
2018-07-12T20:44:50.224Z,21.01
2018-07-12T20:46:50.569Z,20.98
2018-07-12T20:48:49.905Z,20.92
2018-07-12T20:50:50.300Z,20.86
2018-07-12T20:52:50.668Z,20.76
2018-07-12T20:54:50.882Z,20.68
2018-07-12T20:56:50.363Z,20.68
2018-07-12T20:58:49.883Z,20.47
2018-07-12T21:00:50.355Z,20.44
2018-07-12T21:02:50.581Z,20.38
2018-07-12T21:04:50.235Z,20.33
2018-07-12T21:06:50.702Z,20.27
2018-07-12T21:08:49.968Z,20.18
2018-07-12T21:10:50.311Z,20.15
2018-07-12T21:12:50.628Z,20.10
2018-07-12T21:14:49.891Z,20.10
2018-07-12T21:16:50.457Z,20.03
2018-07-12T21:18:49.875Z,19.95
2018-07-12T21:20:50.141Z,19.90
2018-07-12T21:22:50.380Z,19.88
2018-07-12T21:24:50.606Z,19.85
2018-07-12T21:26:49.977Z,19.75
2018-07-12T21:28:50.368Z,19.68
2018-07-12T21:30:50.647Z,19.59
2018-07-12T21:32:50.861Z,19.57
2018-07-12T21:34:50.537Z,19.57
2018-07-12T21:36:49.869Z,19.61
2018-07-12T21:38:50.308Z,19.64
2018-07-12T21:40:50.558Z,19.64
2018-07-12T21:42:50.796Z,19.61
2018-07-12T21:44:50.048Z,19.60
2018-07-12T21:46:50.429Z,19.59
2018-07-12T21:48:50.678Z,19.57
2018-07-12T21:50:49.914Z,19.55
2018-07-12T21:52:50.278Z,19.52
2018-07-12T21:54:50.573Z,19.50
2018-07-12T21:56:50.058Z,19.46
2018-07-12T21:58:50.403Z,19.43
2018-07-12T22:00:50.657Z,19.43
2018-07-12T22:02:50.315Z,19.42
2018-07-12T22:04:49.888Z,19.37
2018-07-12T22:06:50.469Z,19.33
2018-07-12T22:08:50.789Z,19.31
2018-07-12T22:10:49.967Z,19.27
2018-07-12T22:12:50.265Z,19.26
2018-07-12T22:14:50.501Z,19.25
2018-07-12T22:16:49.990Z,19.24
2018-07-12T22:18:50.290Z,19.25
2018-07-12T22:20:50.491Z,19.25
2018-07-12T22:22:50.727Z,19.27
2018-07-12T22:24:49.959Z,19.30
2018-07-12T22:26:50.645Z,19.30
2018-07-12T22:28:49.934Z,19.29
2018-07-12T22:30:50.333Z,19.29
2018-07-12T22:32:50.587Z,19.29
2018-07-12T22:34:50.216Z,19.29
2018-07-12T22:36:50.756Z,19.29
2018-07-12T22:38:50.006Z,19.32
2018-07-12T22:40:50.353Z,19.34
2018-07-12T22:42:50.715Z,19.34
2018-07-12T22:44:49.940Z,19.33
2018-07-12T22:46:50.378Z,19.34
2018-07-12T22:48:51.395Z,19.34
2018-07-12T22:50:49.949Z,19.33
2018-07-12T22:52:50.118Z,19.27
2018-07-12T22:54:50.408Z,19.20
2018-07-12T22:56:50.709Z,19.18
2018-07-12T22:58:50.022Z,19.11
2018-07-12T23:00:50.384Z,19.01
2018-07-12T23:02:50.645Z,18.96
2018-07-12T23:04:50.487Z,18.86
2018-07-12T23:06:50.898Z,18.82
2018-07-12T23:08:50.511Z,18.67
2018-07-12T23:10:50.742Z,18.57
2018-07-12T23:12:50.124Z,18.52
2018-07-12T23:14:50.416Z,18.40
2018-07-12T23:16:50.823Z,18.40
2018-07-12T23:18:50.233Z,18.29
2018-07-12T23:20:50.593Z,18.15
2018-07-12T23:22:49.961Z,18.15
2018-07-12T23:24:50.849Z,18.07
2018-07-12T23:26:50.367Z,18.01
2018-07-12T23:28:50.629Z,17.97
2018-07-12T23:30:50.021Z,17.90
2018-07-12T23:32:50.276Z,17.85
2018-07-12T23:34:50.753Z,17.80
2018-07-12T23:36:50.246Z,17.77
2018-07-12T23:38:50.510Z,17.72
2018-07-12T23:40:50.781Z,17.69
2018-07-12T23:42:50.098Z,17.67
2018-07-12T23:44:50.307Z,17.61
2018-07-12T23:46:50.843Z,17.64
2018-07-12T23:48:50.273Z,17.65
2018-07-12T23:50:50.467Z,17.66
2018-07-12T23:52:50.650Z,17.59
2018-07-12T23:54:50.046Z,17.52
2018-07-12T23:56:50.441Z,17.44
2018-07-12T23:58:50.641Z,17.36
